Time;durP1;ratioP1;P1;durP2;ratioP2;P2;SDS_P1;SDS_P2;PMS_P1;PMS_P2;Temp;Humidity;BMP_temperature;BMP_pressure;BME280_temperature;BME280_humidity;BME280_pressure;Samples;Min_cycle;Max_cycle;Signal;HPM_P1;HPM_P2
2021/08/16 00:02:10;;;;;;;2.20;1.92;;;19.20;75.90;;;;;;5086540;28;20115;-75
2021/08/16 00:04:36;;;;;;;3.08;2.40;;;19.20;75.90;;;;;;5093103;28;20030;-76
2021/08/16 00:07:02;;;;;;;2.63;1.90;;;19.10;75.80;;;;;;5105880;28;20031;-74
2021/08/16 00:09:28;;;;;;;2.80;2.47;;;19.10;75.80;;;;;;5092549;28;20036;-75
2021/08/16 00:11:54;;;;;;;2.65;2.05;;;19.10;75.80;;;;;;5085182;28;20040;-75
2021/08/16 00:14:20;;;;;;;2.92;2.60;;;19.10;75.80;;;;;;5085119;28;20300;-74
2021/08/16 00:16:46;;;;;;;2.55;2.33;;;19.10;75.80;;;;;;5086160;28;20032;-76
2021/08/16 00:19:12;;;;;;;4.57;2.42;;;19.10;75.80;;;;;;5100528;28;20042;-76
2021/08/16 00:21:38;;;;;;;3.55;2.55;;;19.00;75.70;;;;;;5109831;28;20058;-75
2021/08/16 00:24:04;;;;;;;2.45;2.25;;;19.00;75.70;;;;;;5096151;28;20473;-75
2021/08/16 00:26:33;;;;;;;3.28;2.63;;;19.00;75.70;;;;;;5090051;28;20032;-75
2021/08/16 00:28:59;;;;;;;4.32;2.10;;;19.00;75.70;;;;;;5088555;28;20039;-77
2021/08/16 00:31:27;;;;;;;3.05;2.40;;;19.00;75.60;;;;;;5088309;28;20047;-75
2021/08/16 00:33:54;;;;;;;2.65;2.25;;;19.00;75.70;;;;;;5100712;28;20469;-75
2021/08/16 00:36:20;;;;;;;3.78;2.55;;;19.00;75.70;;;;;;5098896;28;20537;-76
2021/08/16 00:38:46;;;;;;;2.50;2.17;;;19.00;75.70;;;;;;5109513;28;20031;-77
2021/08/16 00:41:13;;;;;;;3.50;2.60;;;18.90;75.50;;;;;;5110126;28;20144;-76
2021/08/16 00:43:40;;;;;;;3.95;2.60;;;18.90;75.50;;;;;;5101355;28;20035;-76
2021/08/16 00:46:06;;;;;;;4.45;2.72;;;19.00;75.70;;;;;;5091078;28;20471;-76
2021/08/16 00:48:32;;;;;;;2.53;2.00;;;18.90;75.50;;;;;;5089862;28;20028;-77
2021/08/16 00:51:00;;;;;;;3.70;2.25;;;18.90;75.40;;;;;;5089368;28;20047;-75
2021/08/16 00:53:29;;;;;;;4.15;2.47;;;18.90;75.40;;;;;;5097543;28;20039;-76
2021/08/16 00:55:56;;;;;;;2.72;2.45;;;18.90;75.50;;;;;;5109955;28;20611;-77
2021/08/16 00:58:22;;;;;;;2.60;2.10;;;18.80;75.20;;;;;;5108545;28;20101;-78
2021/08/16 01:00:49;;;;;;;3.20;2.90;;;18.90;75.50;;;;;;5108754;28;20493;-75
2021/08/16 01:03:14;;;;;;;2.88;2.22;;;18.80;75.30;;;;;;5088910;28;20026;-77
2021/08/16 01:05:40;;;;;;;2.97;2.70;;;18.80;75.20;;;;;;5087988;28;20044;-75
2021/08/16 01:08:06;;;;;;;4.00;2.72;;;18.80;75.20;;;;;;5078872;28;20116;-76
2021/08/16 01:10:34;;;;;;;4.63;2.63;;;18.70;75.00;;;;;;5089081;28;20082;-75
2021/08/16 01:13:00;;;;;;;5.00;2.78;;;18.70;75.00;;;;;;5087813;28;20060;-75
2021/08/16 01:15:29;;;;;;;4.25;2.60;;;18.70;75.10;;;;;;5089415;28;20028;-76
2021/08/16 01:17:56;;;;;;;2.78;2.55;;;18.60;74.90;;;;;;5087538;28;20061;-74
2021/08/16 01:20:22;;;;;;;5.68;2.38;;;18.60;75.00;;;;;;5109269;28;20179;-75
2021/08/16 01:22:48;;;;;;;3.10;2.80;;;18.50;74.70;;;;;;5109116;28;20039;-76
2021/08/16 01:25:14;;;;;;;4.07;2.80;;;18.50;74.80;;;;;;5109552;28;20032;-75
2021/08/16 01:27:41;;;;;;;3.65;2.78;;;18.50;74.90;;;;;;5108613;28;20486;-74
2021/08/16 01:30:09;;;;;;;3.72;2.47;;;18.40;75.30;;;;;;5107985;28;20028;-76
2021/08/16 01:32:36;;;;;;;6.00;2.75;;;18.40;74.80;;;;;;5085238;28;20527;-76
2021/08/16 01:35:02;;;;;;;2.65;2.40;;;18.40;74.80;;;;;;5080304;28;20024;-76
2021/08/16 01:37:28;;;;;;;2.45;2.25;;;18.40;74.80;;;;;;5065639;28;20486;-75
2021/08/16 01:39:54;;;;;;;3.13;2.20;;;18.30;74.70;;;;;;5105417;28;20035;-78
2021/08/16 01:42:20;;;;;;;3.65;2.65;;;18.30;74.70;;;;;;5096537;28;20139;-74
2021/08/16 01:44:47;;;;;;;3.35;2.70;;;18.20;74.60;;;;;;5089292;28;20027;-75
2021/08/16 01:47:12;;;;;;;3.53;2.30;;;18.20;74.60;;;;;;5082443;28;20483;-75
2021/08/16 01:49:38;;;;;;;3.70;2.72;;;18.20;74.70;;;;;;5072478;28;20047;-76
2021/08/16 01:52:05;;;;;;;2.72;2.00;;;18.10;74.60;;;;;;5088209;28;20098;-75
2021/08/16 01:54:31;;;;;;;3.05;2.50;;;18.10;74.70;;;;;;5071892;28;20024;-74
2021/08/16 01:56:57;;;;;;;3.47;2.95;;;18.10;74.80;;;;;;5072021;28;20093;-76
2021/08/16 01:59:23;;;;;;;3.42;2.22;;;18.10;74.90;;;;;;5072021;28;20024;-76
2021/08/16 02:01:49;;;;;;;2.97;2.53;;;18.00;74.70;;;;;;5079783;28;20028;-75
2021/08/16 02:04:14;;;;;;;7.00;2.95;;;18.00;74.80;;;;;;5074174;28;20073;-75
2021/08/16 02:06:40;;;;;;;3.15;2.83;;;18.00;74.80;;;;;;5091539;28;20032;-75
2021/08/16 02:09:06;;;;;;;4.20;2.92;;;18.00;74.90;;;;;;5082611;28;20020;-75
2021/08/16 02:11:32;;;;;;;4.38;3.13;;;17.90;74.80;;;;;;5090637;28;20047;-75
2021/08/16 02:13:58;;;;;;;4.90;3.15;;;17.90;74.80;;;;;;5088920;28;20065;-76
2021/08/16 02:16:24;;;;;;;5.97;2.47;;;17.80;74.70;;;;;;5080983;28;20481;-75
2021/08/16 02:18:50;;;;;;;3.13;2.83;;;17.80;74.70;;;;;;5091901;28;20754;-75
2021/08/16 02:21:16;;;;;;;3.60;2.72;;;17.80;74.70;;;;;;5091958;28;20111;-76
2021/08/16 02:23:42;;;;;;;3.38;2.83;;;17.80;74.70;;;;;;5091760;28;20145;-76
2021/08/16 02:26:09;;;;;;;3.90;3.28;;;17.70;74.50;;;;;;5090371;28;20114;-74
2021/08/16 02:28:35;;;;;;;4.35;3.60;;;17.70;74.60;;;;;;5091793;28;20028;-75
2021/08/16 02:31:01;;;;;;;3.80;2.88;;;17.70;74.60;;;;;;5091822;28;20032;-75
2021/08/16 02:33:27;;;;;;;3.65;3.10;;;17.60;74.40;;;;;;5092042;28;20505;-75
2021/08/16 02:35:53;;;;;;;6.07;3.55;;;17.60;74.50;;;;;;5091403;28;20093;-75
2021/08/16 02:38:19;;;;;;;4.80;3.03;;;17.60;74.50;;;;;;5082317;28;20475;-75
2021/08/16 02:40:45;;;;;;;3.53;3.22;;;17.60;74.50;;;;;;5091208;28;20034;-74
2021/08/16 02:43:11;;;;;;;3.67;3.30;;;17.50;74.40;;;;;;5091567;28;20044;-75
2021/08/16 02:45:36;;;;;;;3.85;2.80;;;17.50;74.50;;;;;;5090177;28;20077;-75
2021/08/16 02:48:03;;;;;;;4.15;3.67;;;17.50;74.60;;;;;;5090207;28;20077;-75
2021/08/16 02:50:29;;;;;;;4.70;3.25;;;17.50;74.60;;;;;;5091779;28;20391;-74
2021/08/16 02:52:55;;;;;;;5.30;3.30;;;17.40;74.50;;;;;;5091523;28;20028;-76
2021/08/16 02:55:21;;;;;;;4.00;3.45;;;17.40;74.60;;;;;;5089729;28;20028;-74
2021/08/16 02:57:47;;;;;;;4.43;3.40;;;17.40;74.70;;;;;;5090295;28;20085;-75
2021/08/16 03:00:14;;;;;;;4.53;3.33;;;17.40;74.70;;;;;;5090243;28;20036;-76
2021/08/16 03:02:42;;;;;;;4.00;3.38;;;17.40;74.80;;;;;;5082767;28;20530;-74
2021/08/16 03:05:08;;;;;;;4.32;3.65;;;17.40;74.80;;;;;;5071758;28;20068;-75
2021/08/16 03:07:34;;;;;;;4.88;3.25;;;17.30;75.20;;;;;;5069362;28;20033;-75
2021/08/16 03:10:00;;;;;;;3.60;3.30;;;17.30;74.70;;;;;;5043051;28;20078;-74
2021/08/16 03:12:26;;;;;;;7.13;3.75;;;17.30;74.70;;;;;;5086591;28;20036;-76
2021/08/16 03:14:52;;;;;;;4.13;3.72;;;17.30;74.80;;;;;;5070912;28;20083;-75
2021/08/16 03:17:18;;;;;;;5.22;3.28;;;17.30;74.80;;;;;;5070875;28;20506;-75
2021/08/16 03:19:44;;;;;;;4.70;3.40;;;17.30;74.80;;;;;;5071128;28;20550;-75
2021/08/16 03:22:10;;;;;;;4.53;3.45;;;17.30;74.80;;;;;;5070864;28;20028;-75
2021/08/16 03:24:36;;;;;;;4.32;3.00;;;17.30;74.90;;;;;;5086399;28;20443;-75
2021/08/16 03:27:02;;;;;;;5.22;4.03;;;17.30;74.90;;;;;;5086503;28;20072;-74
2021/08/16 03:29:28;;;;;;;5.50;3.30;;;17.20;74.70;;;;;;5070806;28;20027;-75
2021/08/16 03:31:54;;;;;;;4.28;3.80;;;17.20;75.30;;;;;;5090087;28;20486;-77
2021/08/16 03:34:20;;;;;;;4.55;3.50;;;17.20;74.80;;;;;;5110906;28;20386;-76
2021/08/16 03:36:45;;;;;;;5.43;3.47;;;17.20;74.80;;;;;;5110984;28;20088;-76
2021/08/16 03:39:12;;;;;;;4.82;3.80;;;17.20;74.80;;;;;;5111109;28;20028;-76
2021/08/16 03:41:37;;;;;;;5.28;4.00;;;17.20;74.80;;;;;;5102142;28;20027;-75
2021/08/16 03:44:04;;;;;;;4.57;3.80;;;17.20;74.80;;;;;;5111207;28;20367;-75
2021/08/16 03:46:30;;;;;;;4.45;3.72;;;17.20;74.80;;;;;;5111376;28;20545;-76
2021/08/16 03:48:55;;;;;;;4.25;3.83;;;17.10;74.70;;;;;;5111318;28;20123;-76
2021/08/16 03:51:22;;;;;;;5.50;4.05;;;17.10;74.70;;;;;;5111008;28;20071;-76
2021/08/16 03:53:48;;;;;;;4.68;3.67;;;17.10;74.70;;;;;;5113821;28;20023;-76
2021/08/16 03:56:14;;;;;;;5.32;4.50;;;17.10;74.70;;;;;;5113722;28;20038;-75
2021/08/16 03:58:41;;;;;;;5.18;4.15;;;17.10;74.70;;;;;;5115143;28;20069;-76
2021/08/16 04:01:09;;;;;;;5.18;4.20;;;17.10;74.70;;;;;;5093476;28;20059;-74
2021/08/16 04:03:35;;;;;;;6.45;4.25;;;17.00;74.50;;;;;;5102605;28;20066;-77
2021/08/16 04:06:01;;;;;;;5.82;5.13;;;17.00;74.60;;;;;;5091761;28;20468;-74
2021/08/16 04:08:27;;;;;;;6.13;4.70;;;17.00;74.60;;;;;;5079535;28;20033;-75
2021/08/16 04:10:53;;;;;;;5.18;4.63;;;17.00;74.70;;;;;;5070735;28;20052;-74
2021/08/16 04:13:18;;;;;;;7.72;4.95;;;17.00;74.70;;;;;;5066198;28;20076;-75
2021/08/16 04:15:44;;;;;;;7.60;5.28;;;17.00;74.80;;;;;;5080191;28;20032;-75
2021/08/16 04:18:10;;;;;;;5.45;4.95;;;16.90;74.60;;;;;;5073025;28;20032;-75
2021/08/16 04:20:36;;;;;;;9.57;5.90;;;16.90;74.60;;;;;;5079289;28;20166;-74
2021/08/16 04:23:02;;;;;;;5.75;5.10;;;16.90;74.70;;;;;;5078377;28;20044;-75
2021/08/16 04:25:29;;;;;;;8.32;5.35;;;16.90;74.70;;;;;;5078734;28;20029;-74
2021/08/16 04:27:55;;;;;;;6.65;5.97;;;16.80;74.60;;;;;;5093883;28;20032;-74
2021/08/16 04:30:20;;;;;;;7.50;6.63;;;16.80;74.60;;;;;;5092904;28;20119;-73
2021/08/16 04:32:46;;;;;;;7.57;6.47;;;16.80;74.60;;;;;;5094041;28;20060;-74
2021/08/16 04:35:12;;;;;;;8.20;6.70;;;16.80;74.60;;;;;;5089522;28;20028;-74
2021/08/16 04:37:40;;;;;;;13.07;7.18;;;16.70;74.40;;;;;;5085907;28;20111;-74
2021/08/16 04:40:08;;;;;;;7.70;6.75;;;16.70;74.50;;;;;;5080691;28;20398;-74
2021/08/16 04:42:34;;;;;;;9.73;8.52;;;16.70;75.10;;;;;;5091963;28;20060;-75
2021/08/16 04:45:00;;;;;;;10.88;8.07;;;16.70;74.60;;;;;;5093840;28;20028;-75
2021/08/16 04:47:26;;;;;;;10.73;8.48;;;16.60;74.50;;;;;;5089780;28;20043;-76
2021/08/16 04:49:54;;;;;;;10.30;8.60;;;16.60;74.60;;;;;;5069355;28;20021;-76
2021/08/16 04:52:21;;;;;;;11.25;9.23;;;16.60;74.60;;;;;;5068852;28;20821;-75
2021/08/16 04:54:47;;;;;;;10.68;9.30;;;16.60;74.60;;;;;;5073623;28;20060;-76
2021/08/16 04:57:12;;;;;;;11.45;9.73;;;16.60;74.70;;;;;;5071685;28;20028;-76
2021/08/16 04:59:38;;;;;;;13.35;10.45;;;16.60;74.80;;;;;;5093941;28;20064;-75
2021/08/16 05:02:04;;;;;;;12.38;11.02;;;16.60;74.80;;;;;;5079610;28;20035;-75
2021/08/16 05:04:30;;;;;;;13.90;10.40;;;16.60;74.80;;;;;;5085243;28;20033;-76
2021/08/16 05:06:56;;;;;;;14.43;11.27;;;16.60;74.80;;;;;;5069285;28;20461;-77
2021/08/16 05:09:22;;;;;;;17.80;13.07;;;16.60;74.90;;;;;;5086264;28;20302;-76
2021/08/16 05:11:48;;;;;;;14.05;11.57;;;16.60;74.90;;;;;;5087430;28;20043;-75
2021/08/16 05:14:15;;;;;;;13.27;11.65;;;16.60;74.90;;;;;;5088545;28;20055;-77
2021/08/16 05:16:42;;;;;;;14.40;12.57;;;16.60;74.90;;;;;;5087837;28;20059;-76
2021/08/16 05:19:08;;;;;;;16.85;14.02;;;16.60;74.90;;;;;;5104219;28;20398;-75
2021/08/16 05:21:34;;;;;;;17.58;12.50;;;16.60;74.90;;;;;;5084015;28;20025;-77
2021/08/16 05:24:00;;;;;;;15.50;13.07;;;16.60;74.90;;;;;;5091873;28;20123;-78
2021/08/16 05:26:26;;;;;;;15.52;13.57;;;16.60;74.90;;;;;;5062510;28;20143;-76
2021/08/16 05:28:52;;;;;;;16.45;13.63;;;16.70;75.10;;;;;;5102013;28;20027;-76
2021/08/16 05:31:18;;;;;;;18.90;13.45;;;16.70;75.00;;;;;;5102351;28;20127;-75
2021/08/16 05:33:44;;;;;;;19.00;15.30;;;16.70;75.00;;;;;;5101473;28;20099;-75
2021/08/16 05:36:10;;;;;;;18.88;14.55;;;16.70;75.00;;;;;;5106927;28;20027;-79
2021/08/16 05:38:36;;;;;;;17.73;15.82;;;16.70;75.00;;;;;;5108730;28;20031;-75
2021/08/16 05:41:02;;;;;;;19.05;16.92;;;16.70;74.90;;;;;;5107116;28;20039;-76
2021/08/16 05:43:28;;;;;;;19.48;17.50;;;16.80;75.00;;;;;;5091172;28;20057;-76
2021/08/16 05:45:54;;;;;;;26.85;20.10;;;16.80;75.00;;;;;;5071798;28;20035;-75
2021/08/16 05:48:20;;;;;;;23.65;21.25;;;16.80;74.90;;;;;;5079823;28;20039;-76
2021/08/16 05:50:46;;;;;;;38.90;30.35;;;16.80;74.80;;;;;;5073564;28;20097;-75
2021/08/16 05:53:12;;;;;;;42.60;29.65;;;16.90;74.80;;;;;;5097631;28;20039;-77
2021/08/16 05:55:38;;;;;;;40.42;29.77;;;16.90;74.60;;;;;;5108633;28;20379;-77
2021/08/16 05:58:04;;;;;;;41.63;31.13;;;16.90;74.40;;;;;;5090362;28;20031;-73
2021/08/16 06:00:30;;;;;;;44.08;31.98;;;16.90;74.10;;;;;;5107957;28;20035;-73
2021/08/16 06:02:56;;;;;;;38.85;30.15;;;16.90;73.90;;;;;;5096982;28;20110;-74
2021/08/16 06:05:22;;;;;;;46.60;30.27;;;16.90;73.70;;;;;;5106119;28;20131;-75
2021/08/16 06:07:48;;;;;;;37.40;31.00;;;16.90;73.50;;;;;;5106188;28;20035;-78
2021/08/16 06:10:14;;;;;;;40.35;30.45;;;17.00;73.50;;;;;;5088527;28;20131;-76
2021/08/16 06:12:40;;;;;;;38.17;29.85;;;17.00;73.30;;;;;;5107459;28;20031;-77
2021/08/16 06:15:08;;;;;;;36.13;30.13;;;17.00;73.20;;;;;;5089122;28;20118;-77
2021/08/16 06:17:37;;;;;;;36.55;31.67;;;17.00;73.10;;;;;;5106811;28;20100;-76
2021/08/16 06:20:05;;;;;;;38.33;31.02;;;17.00;73.00;;;;;;5099566;28;20582;-79
2021/08/16 06:22:31;;;;;;;44.33;29.65;;;17.00;72.80;;;;;;5082550;28;20148;-74
2021/08/16 06:24:56;;;;;;;41.00;30.90;;;17.10;72.90;;;;;;5073196;28;20074;-77
2021/08/16 06:27:22;;;;;;;48.53;32.85;;;17.10;72.80;;;;;;5088143;28;20462;-76
2021/08/16 06:29:48;;;;;;;46.15;31.77;;;17.10;72.70;;;;;;5071315;28;20024;-75
2021/08/16 06:32:14;;;;;;;42.13;32.60;;;17.10;72.60;;;;;;5075753;28;20048;-78
2021/08/16 06:34:41;;;;;;;42.13;32.10;;;17.10;72.40;;;;;;5083109;28;20160;-75
2021/08/16 06:37:08;;;;;;;40.70;33.13;;;17.20;72.50;;;;;;5084048;28;20032;-77
2021/08/16 06:39:33;;;;;;;43.17;30.35;;;17.20;72.30;;;;;;5102857;28;20016;-75
2021/08/16 06:41:59;;;;;;;47.80;34.20;;;17.30;72.30;;;;;;5104393;28;20031;-75
2021/08/16 06:44:28;;;;;;;44.20;35.08;;;17.30;72.20;;;;;;5103664;28;20036;-77
2021/08/16 06:46:55;;;;;;;41.97;34.40;;;17.40;72.70;;;;;;5104301;28;20031;-77
2021/08/16 06:49:22;;;;;;;45.40;33.08;;;17.50;72.10;;;;;;5104113;28;20023;-76
2021/08/16 06:51:48;;;;;;;40.90;33.25;;;17.60;72.10;;;;;;5106889;28;20039;-74
2021/08/16 06:54:14;;;;;;;46.90;34.80;;;17.60;71.90;;;;;;5105658;28;20031;-76
2021/08/16 06:56:41;;;;;;;43.40;35.83;;;17.70;71.80;;;;;;5107033;28;20034;-77
2021/08/16 06:59:06;;;;;;;42.92;35.50;;;17.80;71.80;;;;;;5106392;28;20118;-77
2021/08/16 07:01:32;;;;;;;49.88;35.00;;;17.80;71.50;;;;;;5098508;28;20036;-76
2021/08/16 07:03:58;;;;;;;45.90;36.30;;;17.90;71.50;;;;;;5100965;28;20027;-76
2021/08/16 07:06:25;;;;;;;40.38;32.88;;;17.90;71.20;;;;;;5106640;28;20359;-78
2021/08/16 07:08:51;;;;;;;47.67;36.00;;;18.00;71.20;;;;;;5104806;28;20031;-75
2021/08/16 07:11:18;;;;;;;40.17;32.45;;;18.10;71.20;;;;;;5104955;28;20188;-75
2021/08/16 07:13:43;;;;;;;42.58;33.10;;;18.10;71.00;;;;;;5091908;28;20034;-75
2021/08/16 07:16:09;;;;;;;44.92;34.70;;;18.10;70.80;;;;;;5086286;28;20039;-77
2021/08/16 07:18:36;;;;;;;40.30;32.47;;;18.20;70.80;;;;;;5078754;28;20035;-75
2021/08/16 07:21:03;;;;;;;42.60;32.55;;;18.20;70.70;;;;;;5105360;28;20100;-75
2021/08/16 07:23:30;;;;;;;39.30;34.25;;;18.30;70.70;;;;;;5094798;28;20028;-77
2021/08/16 07:26:00;;;;;;;42.95;32.33;;;18.40;70.70;;;;;;5085857;28;20457;-77
2021/08/16 07:28:28;;;;;;;36.72;30.85;;;18.50;70.60;;;;;;5099795;28;20483;-76
2021/08/16 07:30:55;;;;;;;39.53;32.42;;;18.60;70.50;;;;;;5109100;28;20585;-75
2021/08/16 07:33:21;;;;;;;36.92;30.85;;;18.70;70.30;;;;;;5099906;28;20027;-74
2021/08/16 07:35:47;;;;;;;39.38;30.38;;;18.80;70.10;;;;;;5109065;28;20058;-75
2021/08/16 07:38:13;;;;;;;37.25;29.58;;;18.80;69.90;;;;;;5109169;28;20458;-77
2021/08/16 07:40:40;;;;;;;41.33;30.33;;;18.90;69.80;;;;;;5108321;28;20055;-76
2021/08/16 07:43:06;;;;;;;38.13;30.17;;;18.90;69.50;;;;;;5108864;28;20114;-77
2021/08/16 07:45:32;;;;;;;34.28;28.27;;;19.00;69.50;;;;;;5110778;28;20115;-75
2021/08/16 07:47:58;;;;;;;44.35;28.95;;;19.00;69.20;;;;;;5074809;28;20613;-77
2021/08/16 07:50:24;;;;;;;31.45;27.58;;;19.00;69.10;;;;;;5109214;28;20434;-75
2021/08/16 07:52:51;;;;;;;37.53;27.73;;;19.00;68.90;;;;;;5102522;28;20028;-78
2021/08/16 07:55:17;;;;;;;32.83;27.50;;;19.10;68.90;;;;;;5090392;28;20365;-78
2021/08/16 07:57:43;;;;;;;32.25;28.00;;;19.10;68.80;;;;;;5093270;28;20035;-75
2021/08/16 08:00:09;;;;;;;41.30;28.52;;;19.30;69.00;;;;;;5109160;28;20352;-77
2021/08/16 08:02:41;;;;;;;36.22;29.52;;;19.30;68.70;;;;;;5098731;28;20035;-76
2021/08/16 08:05:09;;;;;;;32.67;29.15;;;19.50;68.80;;;;;;5110204;28;20043;-76
2021/08/16 08:07:36;;;;;;;28.70;25.67;;;19.70;68.90;;;;;;5109835;28;20031;-76
2021/08/16 08:10:03;;;;;;;30.77;26.75;;;19.80;68.70;;;;;;5107920;28;20059;-75
2021/08/16 08:12:29;;;;;;;32.85;26.02;;;20.00;68.80;;;;;;5106888;28;20028;-74
2021/08/16 08:14:55;;;;;;;33.55;26.35;;;20.10;68.70;;;;;;5088981;28;20027;-75
2021/08/16 08:17:22;;;;;;;29.58;26.40;;;20.10;69.10;;;;;;5083908;28;20128;-75
2021/08/16 08:19:48;;;;;;;34.38;27.73;;;20.20;68.70;;;;;;5109564;28;20028;-78
2021/08/16 08:22:16;;;;;;;35.08;27.00;;;20.30;68.90;;;;;;5106685;28;20019;-75
2021/08/16 08:24:42;;;;;;;29.55;26.45;;;20.30;68.90;;;;;;5081690;28;20131;-74
2021/08/16 08:27:08;;;;;;;32.78;26.75;;;20.40;69.00;;;;;;5069200;28;20457;-77
2021/08/16 08:29:34;;;;;;;34.58;25.23;;;20.40;69.10;;;;;;5120626;27;20406;-76
2021/08/16 08:32:00;;;;;;;27.48;24.45;;;20.40;69.00;;;;;;5097425;28;20305;-75
2021/08/16 08:34:26;;;;;;;29.02;25.73;;;20.50;69.20;;;;;;5088146;28;20063;-74
2021/08/16 08:36:52;;;;;;;27.27;24.38;;;20.50;69.30;;;;;;5081839;28;20039;-76
2021/08/16 08:39:17;;;;;;;27.42;24.63;;;20.50;69.30;;;;;;5095044;28;20033;-75
2021/08/16 08:41:45;;;;;;;27.55;23.85;;;20.50;69.30;;;;;;5067247;28;20036;-76
2021/08/16 08:44:14;;;;;;;31.98;25.67;;;20.50;69.20;;;;;;5102329;28;20028;-75
2021/08/16 08:46:42;;;;;;;28.23;22.63;;;20.50;69.20;;;;;;5108408;28;20023;-77
2021/08/16 08:49:10;;;;;;;26.70;22.92;;;20.50;69.30;;;;;;5107240;28;20028;-75
2021/08/16 08:51:37;;;;;;;28.77;23.33;;;20.50;69.30;;;;;;5109412;28;20036;-77
2021/08/16 08:54:07;;;;;;;29.80;23.83;;;20.60;69.60;;;;;;5109151;28;20463;-78
2021/08/16 08:56:33;;;;;;;31.73;22.25;;;20.60;69.60;;;;;;5109188;28;20424;-76
2021/08/16 08:59:00;;;;;;;24.30;21.77;;;20.70;69.70;;;;;;5108512;28;20384;-75
2021/08/16 09:01:27;;;;;;;26.58;21.17;;;20.70;69.60;;;;;;5103505;28;20056;-74
2021/08/16 09:03:55;;;;;;;26.58;23.67;;;20.70;69.40;;;;;;5103413;28;20027;-76
2021/08/16 09:06:38;;;;;;;24.65;22.05;;;20.70;69.50;;;;;;5107823;28;20036;-74
2021/08/16 09:09:07;;;;;;;26.38;21.90;;;20.70;69.60;;;;;;5108499;28;20047;-76
2021/08/16 09:11:33;;;;;;;24.48;20.63;;;20.80;69.60;;;;;;5108244;28;20051;-76
2021/08/16 09:14:08;;;;;;;23.50;19.90;;;20.80;69.60;;;;;;5090830;28;20152;-80
2021/08/16 09:16:37;;;;;;;23.35;20.27;;;20.90;69.70;;;;;;5105134;28;20085;-80
2021/08/16 09:19:21;;;;;;;24.27;19.17;;;21.00;69.70;;;;;;5106713;28;20035;-77
2021/08/16 09:22:02;;;;;;;25.02;19.80;;;21.10;69.60;;;;;;5075298;28;20036;-76
2021/08/16 09:24:34;;;;;;;21.33;19.02;;;21.20;69.80;;;;;;5093880;28;20043;-75
2021/08/16 09:27:04;;;;;;;22.10;18.45;;;21.30;69.80;;;;;;5066612;28;20025;-76
2021/08/16 09:29:30;;;;;;;19.45;17.33;;;21.30;69.70;;;;;;5084386;28;20024;-77
2021/08/16 09:32:04;;;;;;;23.02;17.90;;;21.40;69.80;;;;;;5086535;28;20044;-76
2021/08/16 09:34:46;;;;;;;19.23;17.02;;;21.50;69.90;;;;;;5082470;28;20033;-75
2021/08/16 09:37:26;;;;;;;21.73;16.80;;;21.50;69.90;;;;;;5065754;28;20310;-75
2021/08/16 09:40:06;;;;;;;18.13;16.45;;;21.60;70.00;;;;;;5067892;28;20037;-74
2021/08/16 09:42:53;;;;;;;23.92;16.70;;;21.70;70.00;;;;;;5072192;28;20066;-76
2021/08/16 09:45:39;;;;;;;21.83;16.23;;;21.90;70.20;;;;;;5108139;28;20046;-74
2021/08/16 09:48:07;;;;;;;18.63;16.83;;;22.00;70.30;;;;;;5108675;28;20035;-77
2021/08/16 09:50:45;;;;;;;18.45;16.42;;;22.10;70.10;;;;;;5107005;28;20114;-76
2021/08/16 09:53:16;;;;;;;20.40;15.68;;;22.20;70.10;;;;;;5107333;28;20028;-74
2021/08/16 09:55:47;;;;;;;16.92;15.25;;;22.20;70.00;;;;;;5106885;28;20430;-75
2021/08/16 09:58:15;;;;;;;19.65;15.30;;;22.40;70.20;;;;;;5107197;28;20031;-76
2021/08/16 10:00:44;;;;;;;17.52;15.15;;;22.50;70.20;;;;;;5092622;28;20471;-74
2021/08/16 10:03:11;;;;;;;16.70;14.93;;;22.60;70.20;;;;;;5085797;28;20050;-75
2021/08/16 10:05:40;;;;;;;19.77;15.95;;;22.80;70.40;;;;;;5069233;28;20024;-75
2021/08/16 10:08:07;;;;;;;16.67;15.02;;;23.00;70.40;;;;;;5092930;28;20465;-75
2021/08/16 10:10:35;;;;;;;18.60;14.23;;;23.20;71.00;;;;;;5106696;28;20047;-74
2021/08/16 10:13:02;;;;;;;16.15;13.80;;;23.40;70.40;;;;;;5107610;28;20403;-75
2021/08/16 10:15:43;;;;;;;18.27;14.43;;;23.50;70.20;;;;;;5107634;28;20039;-74
2021/08/16 10:18:16;;;;;;;14.45;12.95;;;23.50;70.10;;;;;;5099637;28;20034;-75
2021/08/16 10:20:45;;;;;;;;;;;23.60;70.20;;;;;;5087584;28;20078;-77
2021/08/16 10:23:18;;;;;;;15.52;12.95;;;23.80;70.50;;;;;;5085936;28;19908;-79
2021/08/16 10:25:46;;;;;;;15.60;13.95;;;23.90;70.30;;;;;;5087063;28;20032;-78
2021/08/16 10:28:30;;;;;;;16.05;13.48;;;24.10;70.30;;;;;;5091940;28;20424;-74
2021/08/16 10:30:58;;;;;;;17.13;12.68;;;24.30;70.50;;;;;;5087311;28;20038;-75
2021/08/16 10:33:24;;;;;;;16.70;12.70;;;24.30;70.10;;;;;;5078609;28;20019;-75
2021/08/16 10:35:50;;;;;;;16.08;12.43;;;24.40;70.10;;;;;;5088336;28;20038;-74
2021/08/16 10:38:18;;;;;;;12.73;11.02;;;24.40;69.90;;;;;;5106810;28;20367;-79
2021/08/16 10:41:03;;;;;;;14.02;12.57;;;24.50;70.00;;;;;;5088496;28;20028;-80
2021/08/16 10:43:33;;;;;;;17.80;14.18;;;24.60;69.50;;;;;;5106907;28;20020;-76
2021/08/16 10:46:00;;;;;;;19.25;12.23;;;24.60;68.70;;;;;;5104388;28;20067;-75
2021/08/16 10:48:32;;;;;;;16.35;12.00;;;24.50;68.50;;;;;;5104718;28;20050;-76
2021/08/16 10:51:04;;;;;;;18.05;11.85;;;24.60;68.60;;;;;;5107132;28;20521;-76
2021/08/16 10:53:31;;;;;;;13.35;11.95;;;24.60;68.50;;;;;;5094450;28;20034;-77
2021/08/16 10:55:58;;;;;;;12.85;10.55;;;24.60;68.60;;;;;;5086973;28;20036;-76
2021/08/16 10:58:25;;;;;;;14.05;9.05;;;24.50;67.60;;;;;;5093852;28;20160;-77
2021/08/16 11:00:51;;;;;;;11.80;8.23;;;24.50;66.90;;;;;;5105958;28;20031;-77
2021/08/16 11:03:24;;;;;;;10.40;8.35;;;24.30;65.60;;;;;;5095599;28;20023;-77
2021/08/16 11:05:50;;;;;;;;;;;24.10;64.60;;;;;;5106365;28;20479;-76
2021/08/16 11:08:16;;;;;;;11.57;8.70;;;24.10;65.70;;;;;;5106504;28;19955;-76
2021/08/16 11:10:48;;;;;;;10.82;8.75;;;24.10;65.50;;;;;;5106125;28;20275;-74
2021/08/16 11:13:19;;;;;;;11.85;8.80;;;24.20;65.20;;;;;;5105221;28;20051;-75
2021/08/16 11:15:46;;;;;;;16.60;9.93;;;24.30;65.30;;;;;;5106534;28;20035;-76
2021/08/16 11:18:16;;;;;;;11.75;8.63;;;24.40;65.20;;;;;;5106262;28;20056;-76
2021/08/16 11:20:44;;;;;;;11.63;8.43;;;24.50;65.10;;;;;;5088517;28;20043;-76
2021/08/16 11:23:10;;;;;;;11.38;8.93;;;24.60;65.20;;;;;;5104802;28;20106;-76
2021/08/16 11:25:47;;;;;;;14.98;8.98;;;24.70;65.20;;;;;;5080930;28;20466;-75
2021/08/16 11:28:22;;;;;;;9.55;8.50;;;24.80;65.30;;;;;;5083672;28;20085;-76
2021/08/16 11:30:49;;;;;;;10.95;8.45;;;24.90;65.30;;;;;;5086138;28;20035;-75
2021/08/16 11:33:25;;;;;;;10.48;7.53;;;25.00;65.40;;;;;;5094449;28;20114;-74
2021/08/16 11:36:07;;;;;;;10.00;8.13;;;25.10;65.30;;;;;;5106648;28;20062;-74
2021/08/16 11:38:33;;;;;;;8.88;7.47;;;25.20;65.20;;;;;;5105562;28;20486;-74
2021/08/16 11:41:11;;;;;;;10.02;7.93;;;25.20;65.20;;;;;;5106060;28;20034;-76
2021/08/16 11:43:37;;;;;;;7.57;6.72;;;25.30;65.10;;;;;;5106088;28;20130;-75
2021/08/16 11:46:17;;;;;;;11.07;7.43;;;25.40;65.20;;;;;;5106377;28;20110;-75
2021/08/16 11:48:53;;;;;;;10.50;7.43;;;25.40;65.10;;;;;;5094763;28;20039;-75
2021/08/16 11:51:20;;;;;;;13.27;7.65;;;25.50;65.30;;;;;;5105938;28;20040;-76
2021/08/16 11:53:48;;;;;;;9.00;7.10;;;25.60;65.30;;;;;;5082365;28;20027;-75
2021/08/16 11:56:14;;;;;;;8.52;6.47;;;25.70;65.20;;;;;;5065016;28;20028;-78
2021/08/16 11:58:43;;;;;;;8.25;6.70;;;25.90;65.10;;;;;;5084578;28;20031;-77
2021/08/16 12:01:10;;;;;;;9.63;6.93;;;26.10;64.90;;;;;;5102761;28;20035;-81
2021/08/16 12:03:37;;;;;;;9.15;6.47;;;26.30;64.70;;;;;;5085932;28;20506;-77
2021/08/16 12:06:05;;;;;;;7.25;6.30;;;26.40;64.40;;;;;;5085076;28;20051;-77
2021/08/16 12:08:34;;;;;;;7.32;6.35;;;26.50;64.20;;;;;;5093360;28;20023;-80
2021/08/16 12:11:00;;;;;;;7.25;5.95;;;26.60;64.20;;;;;;5105739;28;20051;-77
2021/08/16 12:13:27;;;;;;;6.93;5.75;;;26.60;64.20;;;;;;5104650;28;20474;-75
2021/08/16 12:15:53;;;;;;;7.70;6.53;;;26.60;64.40;;;;;;5108620;28;20096;-75
2021/08/16 12:18:28;;;;;;;7.38;5.78;;;26.70;64.40;;;;;;5109713;28;20440;-77
2021/08/16 12:20:55;;;;;;;7.97;6.20;;;26.80;64.40;;;;;;5109962;28;20036;-75
2021/08/16 12:23:35;;;;;;;8.32;6.10;;;26.90;64.10;;;;;;5098788;28;20035;-75
2021/08/16 12:26:03;;;;;;;8.65;5.55;;;27.00;63.90;;;;;;5089179;28;20028;-78
2021/08/16 12:28:43;;;;;;;9.70;6.35;;;27.10;64.00;;;;;;5097673;28;20505;-77
2021/08/16 12:31:21;;;;;;;8.55;5.78;;;27.20;64.00;;;;;;5087823;28;20174;-77
2021/08/16 12:33:59;;;;;;;6.93;5.70;;;27.40;63.90;;;;;;5101690;28;20040;-77
2021/08/16 12:36:28;;;;;;;7.32;5.32;;;27.60;63.70;;;;;;5109732;28;20030;-75
2021/08/16 12:38:57;;;;;;;5.85;4.53;;;27.80;63.50;;;;;;5107478;28;20074;-76
2021/08/16 12:41:25;;;;;;;6.95;4.93;;;28.00;63.30;;;;;;5108297;28;20039;-75